< < Back
Terminal Aerodrome Forecast


Current Version              Previous Versions:   1  2  3  4  5  6  7  8  9  

Terminal Aerodrome Forecast

263
FTUS42 KILM 011300 CCB
TAFFLO
TAF COR
KFLO 011354Z 0112/0212 04008KT 5SM -RA OVC012
     FM011400 05006KT 6SM -RA BKN008 OVC012
      TEMPO 0117/0121 VRB05KT 5SM -RA SCT008 OVC012
     FM012300 35004KT 3SM BR BKN006
     FM020400 25004KT 3SM BR SCT004 BKN100
      TEMPO 0207/0211 1SM BR BKN003=

Latest METAR

227
SAUS70 KWBC 011600 RRR
MTRFLO
METAR KFLO 011553Z 02007KT 1 1/2SM RA BR BKN005 OVC014 02/01 A3053 RMK
AO2 RAB1459 SLP336 P0006 T00220006


USA.gov is the U.S. government's official web portal to all federal, state and local government web resources and services.